Time;durP1;ratioP1;P1;durP2;ratioP2;P2;SDS_P1;SDS_P2;PMS_P1;PMS_P2;Temp;Humidity;BMP_temperature;BMP_pressure;BME280_temperature;BME280_humidity;BME280_pressure;Samples;Min_cycle;Max_cycle;Signal;HPM_P1;HPM_P2
2022/06/08 00:02:15;;;;;;;;;;;15.20;99.90;;;;;;5087065;28;19932;-68
2022/06/08 00:04:42;;;;;;;;;;;15.20;99.90;;;;;;5056484;28;20281;-67
2022/06/08 00:07:08;;;;;;;;;;;15.20;99.90;;;;;;5056688;28;19932;-67
2022/06/08 00:09:35;;;;;;;;;;;15.30;99.90;;;;;;5050758;28;19986;-67
2022/06/08 00:12:04;;;;;;;;;;;15.30;99.90;;;;;;5076515;28;20300;-67
2022/06/08 00:14:31;;;;;;;;;;;15.30;99.90;;;;;;5056123;28;19925;-68
2022/06/08 00:16:58;;;;;;;;;;;15.30;99.90;;;;;;5095305;28;19928;-68
2022/06/08 00:19:25;;;;;;;;;;;15.30;99.90;;;;;;5068219;28;20012;-67
2022/06/08 00:21:52;;;;;;;;;;;15.30;99.90;;;;;;5056049;28;19929;-67
2022/06/08 00:24:19;;;;;;;;;;;15.30;99.90;;;;;;5059202;28;19931;-67
2022/06/08 00:26:46;;;;;;;;;;;15.30;99.90;;;;;;5067386;28;20394;-68
2022/06/08 00:29:14;;;;;;;;;;;15.30;99.90;;;;;;5096022;28;20058;-67
2022/06/08 00:31:42;;;;;;;;;;;15.30;99.90;;;;;;5088473;28;20379;-68
2022/06/08 00:34:09;;;;;;;;;;;15.20;99.90;;;;;;5054634;28;19925;-67
2022/06/08 00:36:38;;;;;;;;;;;15.30;99.90;;;;;;5061192;28;19924;-67
2022/06/08 00:39:05;;;;;;;;;;;15.30;99.90;;;;;;5060928;28;19938;-67
2022/06/08 00:41:37;;;;;;;;;;;15.30;99.90;;;;;;5101113;28;20345;-67
2022/06/08 00:44:06;;;;;;;;;;;15.30;99.90;;;;;;5064490;28;19931;-67
2022/06/08 00:46:34;;;;;;;;;;;15.20;99.90;;;;;;5064027;28;19928;-68
2022/06/08 00:49:03;;;;;;;;;;;15.20;99.90;;;;;;5068803;28;19935;-68
2022/06/08 00:51:29;;;;;;;;;;;15.20;99.90;;;;;;5057602;28;19925;-67
2022/06/08 00:53:59;;;;;;;;;;;15.20;99.90;;;;;;5065424;28;19985;-66
2022/06/08 00:56:28;;;;;;;;;;;15.20;99.90;;;;;;5056682;28;19928;-67
2022/06/08 00:58:56;;;;;;;;;;;15.20;99.90;;;;;;5064186;28;20005;-66
2022/06/08 01:01:23;;;;;;;;;;;15.20;99.90;;;;;;5089094;28;19929;-67
2022/06/08 01:04:05;;;;;;;;;;;15.10;99.90;;;;;;5064898;28;19930;-67
2022/06/08 01:06:31;;;;;;;;;;;15.00;99.90;;;;;;5058848;28;19948;-68
2022/06/08 01:08:58;;;;;;;;;;;14.90;99.90;;;;;;5061435;28;19925;-67
2022/06/08 01:11:29;;;;;;;;;;;14.90;99.90;;;;;;5061998;28;19925;-67
2022/06/08 01:13:59;;;;;;;;;;;14.80;99.90;;;;;;5095161;28;19924;-67
2022/06/08 01:16:26;;;;;;;;;;;14.70;99.90;;;;;;5062553;28;19924;-67
2022/06/08 01:18:54;;;;;;;;;;;14.70;99.90;;;;;;5067627;28;19924;-67
2022/06/08 01:21:42;;;;;;;;;;;14.80;99.90;;;;;;5061935;28;20384;-67
2022/06/08 01:24:17;;;;;;;;;;;14.80;99.90;;;;;;5059785;28;19924;-67
2022/06/08 01:26:55;;;;;;;;;;;14.70;99.90;;;;;;5064637;28;19948;-67
2022/06/08 01:29:23;;;;;;;;;;;14.70;99.90;;;;;;5061959;28;19928;-67
2022/06/08 01:31:58;;;;;;;;;;;14.60;99.90;;;;;;5058260;28;19929;-67
2022/06/08 01:34:32;;;;;;;;;;;14.50;99.90;;;;;;5061258;28;19978;-67
2022/06/08 01:37:03;;;;;;;;;;;14.60;99.90;;;;;;5069108;28;19924;-67
2022/06/08 01:39:44;;;;;;;;;;;14.60;99.90;;;;;;5054710;28;20355;-67
2022/06/08 01:42:21;;;;;;;;;;;14.60;99.90;;;;;;5059025;28;19932;-67
2022/06/08 01:47:49;;;;;;;;;;;14.50;99.90;;;;;;5064658;28;19927;-67
2022/06/08 01:50:19;;;;;;;;;;;14.40;99.90;;;;;;5092219;28;19974;-66
2022/06/08 01:52:53;;;;;;;;;;;14.40;99.90;;;;;;5070536;28;19925;-67
2022/06/08 01:55:25;;;;;;;;;;;14.40;99.90;;;;;;5061949;28;20300;-67
2022/06/08 01:57:56;;;;;;;;;;;14.30;99.90;;;;;;5061455;28;19935;-67
2022/06/08 02:00:26;;;;;;;;;;;14.30;99.90;;;;;;5068979;28;20414;-67
2022/06/08 02:03:01;;;;;;;;;;;14.30;99.90;;;;;;5091677;28;19928;-66
2022/06/08 02:05:35;;;;;;;;;;;14.30;99.90;;;;;;5063595;28;19925;-65
2022/06/08 02:08:12;;;;;;;;;;;14.40;99.90;;;;;;5069719;28;19968;-67
2022/06/08 02:10:46;;;;;;;;;;;14.40;99.90;;;;;;5060417;28;19925;-67
2022/06/08 02:13:16;;;;;;;;;;;14.30;99.90;;;;;;5057141;28;19933;-66
2022/06/08 02:15:46;;;;;;;;;;;14.30;99.90;;;;;;5058104;28;20303;-67
2022/06/08 02:18:19;;;;;;;;;;;14.20;99.90;;;;;;5069659;28;19932;-67
2022/06/08 02:20:51;;;;;;;;;;;14.10;99.90;;;;;;5095504;28;19931;-66
2022/06/08 02:23:22;;;;;;;;;;;14.00;99.90;;;;;;5069516;28;19964;-67
2022/06/08 02:25:54;;;;;;;;;;;13.90;99.90;;;;;;5099326;28;19924;-67
2022/06/08 02:28:23;;;;;;;;;;;13.90;99.90;;;;;;5070325;28;19959;-67
2022/06/08 02:30:54;;;;;;;;;;;14.00;99.90;;;;;;5100014;28;19924;-66
2022/06/08 02:36:12;;;;;;;;;;;14.00;99.90;;;;;;5065888;28;19927;-67
2022/06/08 02:38:40;;;;;;;;;;;14.00;99.90;;;;;;5092586;28;19935;-67
2022/06/08 02:41:10;;;;;;;;;;;14.00;99.90;;;;;;5056558;28;19925;-67
2022/06/08 02:43:41;;;;;;;;;;;14.10;99.90;;;;;;5059914;28;20458;-66
2022/06/08 02:46:17;;;;;;;;;;;14.10;99.90;;;;;;5061552;28;19932;-67
2022/06/08 02:48:45;;;;;;;;;;;14.10;99.90;;;;;;5069189;28;19932;-66
2022/06/08 02:51:12;;;;;;;;;;;14.00;99.90;;;;;;5061726;28;20307;-66
2022/06/08 02:53:54;;;;;;;;;;;14.00;99.90;;;;;;5059459;28;19935;-66
2022/06/08 02:56:32;;;;;;;;;;;14.00;99.90;;;;;;5068653;28;19970;-65
2022/06/08 02:59:04;;;;;;;;;;;13.80;99.90;;;;;;5100686;28;20380;-67
2022/06/08 03:01:35;;;;;;;;;;;13.80;99.90;;;;;;5064469;28;19937;-67
2022/06/08 03:04:06;;;;;;;;;;;13.80;99.90;;;;;;5070516;28;19928;-66
2022/06/08 03:06:36;;;;;;;;;;;13.80;99.90;;;;;;5060144;28;19936;-66
2022/06/08 03:09:06;;;;;;;;;;;13.80;99.90;;;;;;5066188;28;19935;-66
2022/06/08 03:11:38;;;;;;;;;;;13.90;99.90;;;;;;5055514;28;19925;-67
2022/06/08 03:14:06;;;;;;;;;;;13.90;99.90;;;;;;5062997;28;19932;-67
2022/06/08 03:16:34;;;;;;;;;;;13.90;99.90;;;;;;5053461;28;20066;-67
2022/06/08 03:19:06;;;;;;;;;;;13.90;99.90;;;;;;5060659;28;19931;-67
2022/06/08 03:21:35;;;;;;;;;;;13.90;99.90;;;;;;5065647;28;20308;-67
2022/06/08 03:24:03;;;;;;;;;;;13.90;99.90;;;;;;5057461;28;19928;-67
2022/06/08 03:26:38;;;;;;;;;;;13.90;99.90;;;;;;5062536;28;19932;-68
2022/06/08 03:29:05;;;;;;;;;;;13.80;99.90;;;;;;5061633;28;19976;-67
2022/06/08 03:31:32;;;;;;;;;;;13.80;99.90;;;;;;5095061;28;19924;-66
2022/06/08 03:33:59;;;;;;;;;;;13.80;99.90;;;;;;5063605;28;20284;-66
2022/06/08 03:36:26;;;;;;;;;;;13.80;99.90;;;;;;5063673;28;20000;-67
2022/06/08 03:38:53;;;;;;;;;;;13.80;99.90;;;;;;5057855;28;20309;-67
2022/06/08 03:41:20;;;;;;;;;;;13.70;99.90;;;;;;5087314;28;19924;-66
2022/06/08 03:43:49;;;;;;;;;;;13.70;99.90;;;;;;5057743;28;19925;-67
2022/06/08 03:46:19;;;;;;;;;;;13.70;99.90;;;;;;5065012;28;19959;-67
2022/06/08 03:48:46;;;;;;;;;;;13.70;99.90;;;;;;5058105;28;19931;-66
2022/06/08 03:51:14;;;;;;;;;;;13.80;99.90;;;;;;5056412;28;19932;-67
2022/06/08 03:53:43;;;;;;;;;;;13.80;99.90;;;;;;5057653;28;19925;-66
2022/06/08 03:56:11;;;;;;;;;;;13.80;99.90;;;;;;5059046;28;19985;-67
2022/06/08 03:58:37;;;;;;;;;;;13.80;99.90;;;;;;5060119;28;19925;-66
2022/06/08 04:01:13;;;;;;;;;;;13.80;99.90;;;;;;5060995;28;20027;-67
2022/06/08 04:03:41;;;;;;;;;;;13.90;99.90;;;;;;5055783;28;19929;-67
2022/06/08 04:06:08;;;;;;;;;;;14.00;99.90;;;;;;5059172;28;19925;-67
2022/06/08 04:08:38;;;;;;;;;;;14.00;99.90;;;;;;5063849;28;19924;-67
2022/06/08 04:11:07;;;;;;;;;;;14.10;99.90;;;;;;5058541;28;19925;-67
2022/06/08 04:13:34;;;;;;;;;;;14.10;99.90;;;;;;5058851;28;19925;-66
2022/06/08 04:16:08;;;;;;;;;;;14.20;99.90;;;;;;5056614;28;19931;-67
2022/06/08 04:18:41;;;;;;;;;;;14.30;99.90;;;;;;5095538;28;19924;-66
2022/06/08 04:21:09;;;;;;;;;;;14.30;99.90;;;;;;5091937;28;19947;-66
2022/06/08 04:24:06;;;;;;;;;;;14.40;99.90;;;;;;5050002;28;20025;-66
2022/06/08 04:26:34;;;;;;;;;;;14.40;99.90;;;;;;5059890;28;19925;-67
2022/06/08 04:29:06;;;;;;;;;;;14.50;99.90;;;;;;5062028;28;19925;-68
2022/06/08 04:31:35;;;;;;;;;;;14.60;99.90;;;;;;5094776;28;19924;-67
2022/06/08 04:34:18;;;;;;;;;;;14.70;99.90;;;;;;5066090;28;20304;-67
2022/06/08 04:36:45;;;;;;;;;;;14.80;99.90;;;;;;5056937;28;19981;-66
2022/06/08 04:39:13;;;;;;;;;;;14.90;99.90;;;;;;5058839;28;19932;-67
2022/06/08 04:41:46;;;;;;;;;;;14.90;99.90;;;;;;5056957;28;19972;-67
2022/06/08 04:44:14;;;;;;;;;;;15.00;99.90;;;;;;5064851;28;19925;-67
2022/06/08 04:46:41;;;;;;;;;;;15.10;99.90;;;;;;5057245;28;19960;-67
2022/06/08 04:49:14;;;;;;;;;;;15.20;99.90;;;;;;5056816;28;19968;-66
2022/06/08 04:51:42;;;;;;;;;;;15.30;99.90;;;;;;5063169;28;20007;-67
2022/06/08 04:54:09;;;;;;;;;;;15.30;99.90;;;;;;5066537;28;19925;-67
2022/06/08 04:56:37;;;;;;;;;;;15.40;99.90;;;;;;5056946;28;19928;-66
2022/06/08 04:59:04;;;;;;;;;;;15.50;99.90;;;;;;5058654;28;19940;-67
2022/06/08 05:01:35;;;;;;;;;;;15.50;99.90;;;;;;5057152;28;19925;-67
2022/06/08 05:04:06;;;;;;;;;;;15.60;99.90;;;;;;5063712;28;19932;-67
2022/06/08 05:06:33;;;;;;;;;;;15.60;99.90;;;;;;5053912;28;20007;-67
2022/06/08 05:09:02;;;;;;;;;;;15.70;99.90;;;;;;5053105;28;19925;-67
2022/06/08 05:11:30;;;;;;;;;;;15.70;99.90;;;;;;5076649;28;19932;-67
2022/06/08 05:13:57;;;;;;;;;;;15.70;99.90;;;;;;5052181;28;20347;-67
2022/06/08 05:16:25;;;;;;;;;;;15.70;99.90;;;;;;5062707;28;19935;-67
2022/06/08 05:18:55;;;;;;;;;;;15.70;99.90;;;;;;5061969;28;19950;-67
2022/06/08 05:21:23;;;;;;;;;;;15.80;99.90;;;;;;5062955;28;19924;-67
2022/06/08 05:23:53;;;;;;;;;;;15.80;99.90;;;;;;5066027;28;19962;-67
2022/06/08 05:26:30;;;;;;;;;;;15.90;99.90;;;;;;5062854;28;20403;-68
2022/06/08 05:28:58;;;;;;;;;;;15.90;99.90;;;;;;5064944;28;19956;-67
2022/06/08 05:31:25;;;;;;;;;;;16.00;99.90;;;;;;5062432;28;19925;-67
2022/06/08 05:33:57;;;;;;;;;;;16.10;99.90;;;;;;5063625;28;20619;-67
2022/06/08 05:36:23;;;;;;;;;;;16.10;99.90;;;;;;5057640;28;19982;-67
2022/06/08 05:38:54;;;;;;;;;;;16.20;99.90;;;;;;5097076;28;19959;-67
2022/06/08 05:41:26;;;;;;;;;;;16.20;99.90;;;;;;5088826;28;19925;-67
2022/06/08 05:43:55;;;;;;;;;;;16.30;99.90;;;;;;5065207;28;19924;-67
2022/06/08 05:46:22;;;;;;;;;;;16.40;99.90;;;;;;5062214;28;19978;-67
2022/06/08 05:48:55;;;;;;;;;;;16.40;99.90;;;;;;5058613;28;19928;-68
2022/06/08 05:51:22;;;;;;;;;;;16.40;99.90;;;;;;5063189;28;19931;-67
2022/06/08 05:53:49;;;;;;;;;;;16.50;99.90;;;;;;5060238;28;20012;-67
2022/06/08 05:56:16;;;;;;;;;;;16.60;99.90;;;;;;5067119;28;19929;-67
2022/06/08 05:58:46;;;;;;;;;;;16.60;99.90;;;;;;5065849;28;19971;-67
2022/06/08 06:01:14;;;;;;;;;;;16.70;99.90;;;;;;5060863;28;20412;-67
2022/06/08 06:03:42;;;;;;;;;;;16.70;99.90;;;;;;5069577;28;19955;-71
2022/06/08 06:06:09;;;;;;;;;;;16.80;99.90;;;;;;5063749;28;19925;-67
2022/06/08 06:08:36;;;;;;;;;;;16.90;99.90;;;;;;5064751;28;19929;-67
2022/06/08 06:11:09;;;;;;;;;;;16.90;99.90;;;;;;5066400;28;19925;-67
2022/06/08 06:13:40;;;;;;;;;;;17.00;99.90;;;;;;5068762;28;19928;-67
2022/06/08 06:16:14;;;;;;;;;;;17.10;99.90;;;;;;5063172;28;19932;-67
2022/06/08 06:18:42;;;;;;;;;;;17.10;99.90;;;;;;5062267;28;19978;-67
2022/06/08 06:21:33;;;;;;;;;;;17.20;99.90;;;;;;5064790;28;19955;-67
2022/06/08 06:24:20;;;;;;;;;;;17.30;99.90;;;;;;5060762;28;19930;-67
2022/06/08 06:27:06;;;;;;;;;;;17.40;99.90;;;;;;5060056;28;20005;-67
2022/06/08 06:29:52;;;;;;;;;;;17.40;99.90;;;;;;5065720;28;19931;-67
2022/06/08 06:32:28;;;;;;;;;;;17.50;99.90;;;;;;5066430;28;20310;-66
2022/06/08 06:34:55;;;;;;;;;;;17.50;99.90;;;;;;5068074;28;19925;-68
2022/06/08 06:37:23;;;;;;;;;;;17.60;99.90;;;;;;5065001;28;19964;-68
2022/06/08 06:39:51;;;;;;;;;;;17.70;99.90;;;;;;5065532;28;19947;-67
2022/06/08 06:42:23;;;;;;;;;;;17.80;99.90;;;;;;5057253;28;19978;-67
2022/06/08 06:45:07;;;;;;;;;;;17.70;99.90;;;;;;5064416;28;19939;-67
2022/06/08 06:47:42;;;;;;;;;;;17.80;99.90;;;;;;5065056;28;19924;-67
2022/06/08 06:50:25;;;;;;;;;;;17.90;99.90;;;;;;5065617;28;20337;-67
2022/06/08 06:52:53;;;;;;;;;;;18.00;99.90;;;;;;5069955;28;19985;-66
2022/06/08 06:55:23;;;;;;;;;;;18.00;99.90;;;;;;5060577;28;19924;-67
2022/06/08 06:57:53;;;;;;;;;;;18.00;99.90;;;;;;5066179;28;20319;-67
2022/06/08 07:00:23;;;;;;;;;;;18.10;99.90;;;;;;5066201;28;20307;-67
2022/06/08 07:02:52;;;;;;;;;;;18.10;99.90;;;;;;5067248;28;19924;-67
2022/06/08 07:05:21;;;;;;;;;;;18.10;99.90;;;;;;5066775;28;20423;-67
2022/06/08 07:07:48;;;;;;;;;;;18.10;99.90;;;;;;5061804;28;20016;-67
2022/06/08 07:10:15;;;;;;;;;;;18.10;99.90;;;;;;5063339;28;19932;-67
2022/06/08 07:12:42;;;;;;;;;;;18.20;99.90;;;;;;5068996;28;19940;-68
2022/06/08 07:15:11;;;;;;;;;;;18.30;99.90;;;;;;5090916;28;19924;-67
2022/06/08 07:17:38;;;;;;;;;;;18.30;99.90;;;;;;5097461;28;19929;-67
2022/06/08 07:20:07;;;;;;;;;;;18.20;99.90;;;;;;5100036;28;20388;-67
2022/06/08 07:22:34;;;;;;;;;;;18.30;99.90;;;;;;5057460;28;20016;-68
2022/06/08 07:25:01;;;;;;;;;;;18.20;99.90;;;;;;5066115;28;19932;-67
2022/06/08 07:27:28;;;;;;;;;;;18.20;99.90;;;;;;5090125;28;19982;-67
2022/06/08 07:29:55;;;;;;;;;;;18.20;99.90;;;;;;5069017;28;19925;-67
2022/06/08 07:32:22;;;;;;;;;;;18.30;99.90;;;;;;5068367;28;20027;-67
2022/06/08 07:34:48;;;;;;;;;;;18.50;99.90;;;;;;5066231;28;19924;-68
2022/06/08 07:37:17;;;;;;;;;;;18.60;99.90;;;;;;5063693;28;19948;-68
2022/06/08 07:39:43;;;;;;;;;;;18.80;99.90;;;;;;5060331;28;19925;-67
2022/06/08 07:42:10;;;;;;;;;;;18.90;99.90;;;;;;5059700;28;19928;-67
2022/06/08 07:44:37;;;;;;;;;;;19.20;99.90;;;;;;5068589;28;19975;-67
2022/06/08 07:47:04;;;;;;;;;;;19.40;99.90;;;;;;5088746;28;20465;-67
2022/06/08 07:49:39;;;;;;;;;;;19.60;99.90;;;;;;5064324;28;19977;-67
2022/06/08 07:52:07;;;;;;;;;;;19.60;99.90;;;;;;5061369;28;19921;-67
2022/06/08 07:54:35;;;;;;;;;;;19.80;99.90;;;;;;5068379;28;19977;-67
2022/06/08 07:57:03;;;;;;;;;;;19.80;99.90;;;;;;5060582;28;20082;-66
2022/06/08 07:59:31;;;;;;;;;;;19.80;99.90;;;;;;5064070;28;19925;-67
2022/06/08 08:01:58;;;;;;;;;;;19.60;99.90;;;;;;5065249;28;19928;-67
2022/06/08 08:04:25;;;;;;;;;;;19.60;99.90;;;;;;5067259;28;19924;-67
2022/06/08 08:06:52;;;;;;;;;;;19.60;99.90;;;;;;5063990;28;19924;-67
2022/06/08 08:09:20;;;;;;;;;;;19.80;99.90;;;;;;5059716;28;19929;-67
2022/06/08 08:11:49;;;;;;;;;;;20.20;99.90;;;;;;5062133;28;20350;-67
2022/06/08 08:14:16;;;;;;;;;;;20.20;99.90;;;;;;5054056;28;19928;-67
2022/06/08 08:16:43;;;;;;;;;;;20.50;99.90;;;;;;5059680;28;19924;-66
2022/06/08 08:19:11;;;;;;;;;;;20.80;99.90;;;;;;5061008;28;20023;-67
2022/06/08 08:21:38;;;;;;;;;;;20.90;99.90;;;;;;5092868;28;20319;-67
2022/06/08 08:24:05;;;;;;;;;;;21.10;99.90;;;;;;5060449;28;19924;-67
2022/06/08 08:26:32;;;;;;;;;;;21.10;99.90;;;;;;5058119;28;19925;-67
2022/06/08 08:29:00;;;;;;;;;;;21.00;99.90;;;;;;5061709;28;20041;-67
2022/06/08 08:31:27;;;;;;;;;;;21.00;99.90;;;;;;5089378;28;20380;-67
2022/06/08 08:33:54;;;;;;;;;;;21.00;99.90;;;;;;5067289;28;19928;-67
2022/06/08 08:36:21;;;;;;;;;;;20.60;99.90;;;;;;5058901;28;19979;-67
2022/06/08 08:38:48;;;;;;;;;;;20.60;99.90;;;;;;5058944;28;19933;-67
2022/06/08 08:43:56;;;;;;;;;;;20.40;99.90;;;;;;5055724;28;19920;-66
2022/06/08 08:46:30;;;;;;;;;;;20.50;99.90;;;;;;5087992;28;19954;-68
2022/06/08 08:49:00;;;;;;;;;;;20.40;99.90;;;;;;5066063;28;20362;-68
2022/06/08 08:51:28;;;;;;;;;;;20.40;99.90;;;;;;5088238;28;19929;-67
2022/06/08 08:54:01;;;;;;;;;;;20.50;99.90;;;;;;5088724;28;19925;-67
2022/06/08 08:56:31;;;;;;;;;;;20.50;99.90;;;;;;5066888;28;20375;-68
2022/06/08 08:59:00;;;;;;;;;;;20.60;99.90;;;;;;5066987;28;19925;-67
2022/06/08 09:01:29;;;;;;;;;;;20.60;99.90;;;;;;5063724;28;19925;-67
2022/06/08 09:03:57;;;;;;;;;;;20.40;99.90;;;;;;5069948;28;19986;-66
2022/06/08 09:06:25;;;;;;;;;;;20.40;99.90;;;;;;5090741;28;20363;-67
2022/06/08 09:08:54;;;;;;;;;;;20.30;99.90;;;;;;5063361;28;19925;-67
2022/06/08 09:11:23;;;;;;;;;;;20.20;99.90;;;;;;5095170;28;19924;-67
2022/06/08 09:13:51;;;;;;;;;;;20.40;99.90;;;;;;5096875;28;20031;-67
2022/06/08 09:16:32;;;;;;;;;;;20.40;99.90;;;;;;5068610;28;19928;-66
2022/06/08 09:18:58;;;;;;;;;;;20.50;99.90;;;;;;5068795;28;19924;-67
2022/06/08 09:21:29;;;;;;;;;;;20.70;99.90;;;;;;5062858;28;19929;-67
2022/06/08 09:23:57;;;;;;;;;;;20.50;99.90;;;;;;5061539;28;20394;-67
2022/06/08 09:26:32;;;;;;;;;;;20.30;99.90;;;;;;5094584;28;19924;-67
2022/06/08 09:29:00;;;;;;;;;;;20.40;99.90;;;;;;5062240;28;20315;-67
2022/06/08 09:31:29;;;;;;;;;;;20.50;99.90;;;;;;5066070;28;19972;-67
2022/06/08 09:34:05;;;;;;;;;;;20.40;99.90;;;;;;5069004;28;19958;-67
2022/06/08 09:36:32;;;;;;;;;;;20.30;99.90;;;;;;5062923;28;19924;-67
2022/06/08 09:38:59;;;;;;;;;;;20.30;99.90;;;;;;5069568;28;20346;-67
2022/06/08 09:41:27;;;;;;;;;;;20.30;99.90;;;;;;5060926;28;19928;-66
2022/06/08 09:44:00;;;;;;;;;;;20.30;99.90;;;;;;5056466;28;20396;-67
2022/06/08 09:52:11;;;;;;;;;;;20.40;99.90;;;;;;5049609;28;22410;-67
2022/06/08 09:54:42;;;;;;;;;;;20.00;99.90;;;;;;5066320;28;19947;-67
2022/06/08 09:57:24;;;;;;;;;;;20.10;99.90;;;;;;5069415;28;19939;-66
2022/06/08 10:00:02;;;;;;;;;;;20.00;99.90;;;;;;5062137;28;19924;-68
2022/06/08 10:02:31;;;;;;;;;;;20.10;99.90;;;;;;5066714;28;19932;-67
2022/06/08 10:05:06;;;;;;;;;;;20.00;99.90;;;;;;5064538;28;19925;-66
2022/06/08 10:07:37;;;;;;;;;;;19.90;99.90;;;;;;5064521;28;19925;-67
2022/06/08 10:10:17;;;;;;;;;;;19.90;99.90;;;;;;5069476;28;19924;-67
2022/06/08 10:12:46;;;;;;;;;;;19.80;99.90;;;;;;5093342;28;20007;-67
2022/06/08 10:15:19;;;;;;;;;;;19.60;99.90;;;;;;5060067;28;20777;-67
2022/06/08 10:17:48;;;;;;;;;;;19.30;99.90;;;;;;5059930;28;20365;-66
2022/06/08 10:20:19;;;;;;;;;;;19.30;99.90;;;;;;5058683;28;19924;-67
2022/06/08 10:22:47;;;;;;;;;;;19.00;99.90;;;;;;5058258;28;20293;-66
2022/06/08 10:25:16;;;;;;;;;;;18.90;99.90;;;;;;5067736;22;19929;-62
2022/06/08 10:27:45;;;;;;;;;;;18.60;99.90;;;;;;5037131;28;20439;-63
2022/06/08 10:30:15;;;;;;;;;;;18.40;99.90;;;;;;5048086;28;20458;-61
2022/06/08 10:32:47;;;;;;;;;;;18.50;99.90;;;;;;5044108;28;19929;-62
2022/06/08 10:35:26;;;;;;;;;;;18.50;99.90;;;;;;5057185;28;20124;-62
2022/06/08 10:37:54;;;;;;;;;;;18.10;99.90;;;;;;5048354;28;19925;-62
2022/06/08 10:40:22;;;;;;;;;;;17.90;99.90;;;;;;5044864;28;19925;-62
2022/06/08 10:42:49;;;;;;;;;;;17.90;99.90;;;;;;5044418;28;20451;-63
2022/06/08 10:45:31;;;;;;;;;;;17.90;99.90;;;;;;5052095;28;19992;-63
2022/06/08 10:48:00;;;;;;;;;;;17.90;99.90;;;;;;5051135;28;20024;-63
2022/06/08 10:50:32;;;;;;;;;;;18.00;99.90;;;;;;5043335;28;19940;-63
2022/06/08 10:55:41;;;;;;;;;;;18.00;99.90;;;;;;5048811;28;20342;-64
2022/06/08 10:58:09;;;;;;;;;;;18.00;99.90;;;;;;5044715;28;19933;-63
2022/06/08 11:00:58;;;;;;;;;;;17.90;99.90;;;;;;5048545;28;19989;-62
2022/06/08 11:03:38;;;;;;;;;;;17.80;99.90;;;;;;5046347;28;20412;-63
2022/06/08 11:06:10;;;;;;;;;;;17.50;99.90;;;;;;5046081;28;19953;-64
2022/06/08 11:08:51;;;;;;;;;;;17.50;99.90;;;;;;5042833;28;19931;-64
2022/06/08 11:11:37;;;;;;;;;;;17.40;99.90;;;;;;5038542;28;19925;-64
2022/06/08 11:14:23;;;;;;;;;;;17.40;99.90;;;;;;5043696;28;19956;-64
2022/06/08 11:16:50;;;;;;;;;;;17.40;99.90;;;;;;5044484;28;19931;-64
2022/06/08 11:19:19;;;;;;;;;;;17.40;99.90;;;;;;5049523;28;19928;-64
2022/06/08 11:21:50;;;;;;;;;;;17.50;99.90;;;;;;5045473;28;19932;-64
2022/06/08 11:24:24;;;;;;;;;;;17.40;99.90;;;;;;5044788;28;19925;-64
2022/06/08 11:27:10;;;;;;;;;;;17.50;99.90;;;;;;5035787;28;20020;-63
2022/06/08 11:29:46;;;;;;;;;;;17.60;99.90;;;;;;5038067;28;20383;-63
2022/06/08 11:32:25;;;;;;;;;;;17.50;99.90;;;;;;5038413;28;20027;-63
2022/06/08 11:34:59;;;;;;;;;;;17.40;99.90;;;;;;5035604;28;19931;-64
2022/06/08 11:37:35;;;;;;;;;;;17.60;99.90;;;;;;5043414;28;19929;-63
2022/06/08 11:40:09;;;;;;;;;;;17.60;99.90;;;;;;5041057;28;19932;-63
2022/06/08 11:42:38;;;;;;;;;;;17.70;99.90;;;;;;5037019;28;20450;-63
2022/06/08 11:45:08;;;;;;;;;;;17.80;99.90;;;;;;5045294;28;19924;-63
2022/06/08 11:47:41;;;;;;;;;;;17.80;99.90;;;;;;5042398;28;20020;-64
2022/06/08 11:50:13;;;;;;;;;;;17.70;99.90;;;;;;5040326;28;20002;-63
2022/06/08 11:52:43;;;;;;;;;;;17.80;99.90;;;;;;5037216;28;20407;-63
2022/06/08 11:55:14;;;;;;;;;;;17.90;99.90;;;;;;5043956;28;19925;-63
2022/06/08 11:57:43;;;;;;;;;;;17.80;99.90;;;;;;5038551;28;19928;-63
2022/06/08 12:00:21;;;;;;;;;;;17.90;99.90;;;;;;5047100;28;19925;-63
2022/06/08 12:02:50;;;;;;;;;;;17.90;99.90;;;;;;5045619;28;19924;-63
2022/06/08 12:05:20;;;;;;;;;;;17.80;99.90;;;;;;5047813;28;19952;-62
2022/06/08 12:07:51;;;;;;;;;;;17.50;99.90;;;;;;5043481;28;19925;-62
2022/06/08 12:10:20;;;;;;;;;;;17.40;99.90;;;;;;5046066;28;20012;-63
2022/06/08 12:12:47;;;;;;;;;;;17.50;99.90;;;;;;5045157;28;19936;-63
2022/06/08 12:15:32;;;;;;;;;;;17.50;99.90;;;;;;5032085;28;19924;-62
2022/06/08 12:18:08;;;;;;;;;;;17.60;99.90;;;;;;5021854;28;19929;-63
2022/06/08 12:20:36;;;;;;;;;;;17.70;99.90;;;;;;5031281;28;19929;-63
2022/06/08 12:23:05;;;;;;;;;;;17.90;99.90;;;;;;5031925;28;19960;-63
2022/06/08 12:25:32;;;;;;;;;;;17.90;99.90;;;;;;5030216;28;20020;-62
2022/06/08 12:28:00;;;;;;;;;;;18.00;99.90;;;;;;5028361;28;19932;-63
2022/06/08 12:30:27;;;;;;;;;;;18.10;99.90;;;;;;5036740;28;19936;-63
2022/06/08 12:32:56;;;;;;;;;;;18.20;99.90;;;;;;5028433;28;20415;-62
2022/06/08 12:35:24;;;;;;;;;;;18.20;99.90;;;;;;5031497;28;19983;-63
2022/06/08 12:38:02;;;;;;;;;;;18.10;99.90;;;;;;5026493;28;20389;-62
2022/06/08 12:40:35;;;;;;;;;;;18.00;99.90;;;;;;5047649;28;19931;-62
2022/06/08 12:43:14;;;;;;;;;;;17.80;99.90;;;;;;5029956;28;20400;-64
2022/06/08 12:45:42;;;;;;;;;;;17.70;99.90;;;;;;5030385;28;20362;-62
2022/06/08 12:48:26;;;;;;;;;;;17.70;99.90;;;;;;5034866;28;20305;-64
2022/06/08 12:50:53;;;;;;;;;;;17.70;99.90;;;;;;5032520;28;19963;-63
2022/06/08 12:53:21;;;;;;;;;;;17.50;99.90;;;;;;5041419;28;19925;-63
2022/06/08 12:55:49;;;;;;;;;;;17.50;99.90;;;;;;5033066;28;20400;-63
2022/06/08 12:58:16;;;;;;;;;;;17.40;99.90;;;;;;5031061;28;19929;-66
2022/06/08 13:00:47;;;;;;;;;;;17.30;99.90;;;;;;5037952;28;19925;-64
2022/06/08 13:03:17;;;;;;;;;;;17.30;99.90;;;;;;5032595;28;20367;-64
2022/06/08 13:05:44;;;;;;;;;;;17.10;99.90;;;;;;5035679;28;19932;-62
2022/06/08 13:08:14;;;;;;;;;;;16.90;99.90;;;;;;5032673;28;20011;-63
2022/06/08 13:10:40;;;;;;;;;;;16.70;99.90;;;;;;5032432;28;19935;-63
2022/06/08 13:13:16;;;;;;;;;;;16.70;99.90;;;;;;5033220;28;19975;-63
2022/06/08 13:15:44;;;;;;;;;;;16.50;99.90;;;;;;5041785;28;19925;-64
2022/06/08 13:18:13;;;;;;;;;;;16.50;99.90;;;;;;5031965;28;19925;-68
2022/06/08 13:20:40;;;;;;;;;;;16.50;99.90;;;;;;5038873;28;19978;-63
2022/06/08 13:23:07;;;;;;;;;;;16.50;99.90;;;;;;5031521;28;19924;-64
2022/06/08 13:25:34;;;;;;;;;;;16.50;99.90;;;;;;5029899;28;20358;-64
2022/06/08 13:28:01;;;;;;;;;;;16.50;99.90;;;;;;5031798;28;20312;-63
2022/06/08 13:30:31;;;;;;;;;;;16.50;99.90;;;;;;5036513;28;19929;-64
2022/06/08 13:32:58;;;;;;;;;;;16.60;99.90;;;;;;5032024;28;19951;-63
2022/06/08 13:35:25;;;;;;;;;;;16.60;99.90;;;;;;5031457;28;20019;-63
2022/06/08 13:37:53;;;;;;;;;;;16.60;99.90;;;;;;5031142;28;19929;-64
2022/06/08 13:40:21;;;;;;;;;;;16.60;99.90;;;;;;5031917;28;19925;-63
2022/06/08 13:42:49;;;;;;;;;;;16.60;99.90;;;;;;5026614;28;19979;-64
2022/06/08 13:45:17;;;;;;;;;;;16.60;99.90;;;;;;5031481;28;20373;-63
2022/06/08 13:47:47;;;;;;;;;;;16.60;99.90;;;;;;5035751;28;19987;-64
2022/06/08 13:50:23;;;;;;;;;;;16.70;99.90;;;;;;5059521;28;19925;-63
2022/06/08 13:52:51;;;;;;;;;;;16.70;99.90;;;;;;5036955;28;19976;-64
2022/06/08 13:55:20;;;;;;;;;;;16.60;99.90;;;;;;5034500;28;19968;-66
2022/06/08 13:57:47;;;;;;;;;;;16.50;99.90;;;;;;5032076;28;19933;-63
2022/06/08 14:00:16;;;;;;;;;;;16.50;99.90;;;;;;5036440;28;19928;-63
2022/06/08 14:02:44;;;;;;;;;;;16.50;99.90;;;;;;5037002;28;19925;-67
2022/06/08 14:05:15;;;;;;;;;;;16.50;99.90;;;;;;5034085;28;19924;-66
2022/06/08 14:13:26;;;;;;;;;;;16.40;99.90;;;;;;4974357;28;20401;-63
2022/06/08 14:15:55;;;;;;;;;;;16.20;99.90;;;;;;5020775;28;19936;-62
2022/06/08 14:18:23;;;;;;;;;;;16.20;99.90;;;;;;5031172;28;19925;-64
2022/06/08 14:20:52;;;;;;;;;;;16.00;99.90;;;;;;5032694;28;20376;-65
2022/06/08 14:23:20;;;;;;;;;;;16.00;99.90;;;;;;5035473;28;20396;-64
2022/06/08 14:25:48;;;;;;;;;;;16.00;99.90;;;;;;5035616;28;19928;-64
2022/06/08 14:28:14;;;;;;;;;;;15.90;99.90;;;;;;5035379;28;19932;-65
2022/06/08 14:30:43;;;;;;;;;;;15.90;99.90;;;;;;5034088;28;20462;-65
2022/06/08 14:33:15;;;;;;;;;;;16.20;99.90;;;;;;5034230;28;19928;-65
2022/06/08 14:35:43;;;;;;;;;;;16.20;99.90;;;;;;5046419;28;20385;-65
2022/06/08 14:38:14;;;;;;;;;;;16.40;99.90;;;;;;5033808;28;19967;-63
2022/06/08 14:40:41;;;;;;;;;;;16.50;99.90;;;;;;5029583;28;20422;-63
2022/06/08 14:43:08;;;;;;;;;;;16.40;99.90;;;;;;5032677;28;19933;-64
2022/06/08 14:45:36;;;;;;;;;;;16.40;99.90;;;;;;5032924;28;19929;-64
2022/06/08 14:48:04;;;;;;;;;;;16.30;99.90;;;;;;5032684;28;19925;-64
2022/06/08 14:50:33;;;;;;;;;;;16.40;99.90;;;;;;5035450;28;19924;-64
2022/06/08 14:53:00;;;;;;;;;;;16.30;99.90;;;;;;5037198;28;20463;-64
2022/06/08 14:58:14;;;;;;;;;;;16.40;99.90;;;;;;5029957;28;19966;-64
2022/06/08 15:00:41;;;;;;;;;;;16.40;99.90;;;;;;5033237;28;19925;-64